Flick Point, California
Current Conditions -  °F | °C
As of 4:55 PM on Wednesday 22 Oct 2014 (Local Time) from KTRK Reporting Station
Broken Clouds Broken Clouds  
Wind Chill: 17°   Ceiling: 23000
Heat Index: 17°   Visibility: 10mi
Dew Point: -2°   Wind: 12mph
Humidity: 27%   Direction: 230°SW
Pressure: 30.14"   Gusts: NA
Location:  39.2392°N, 120.102°W
Report Text: KTRK 222355Z 23010KT 10SM FEW150 BKN230 17/M02 A3014 RMK NOSPECI 10180
Loading
Personal Weather Stations






























Interactive Weather Map
Tropical Storm Tracking
New forecast layout! Learn more

10-Day Weather Forecast

Advertisements
Track Severe Weather on mobile